createdAt,value
2018-01-25T00:00:33.156Z,1006.81
2018-01-25T00:01:33.069Z,1006.82
2018-01-25T00:02:33.093Z,1006.81
2018-01-25T00:03:33.207Z,1006.82
2018-01-25T00:05:33.150Z,1006.73
2018-01-25T00:06:33.163Z,1006.76
2018-01-25T00:07:33.184Z,1006.7
2018-01-25T00:08:33.209Z,1006.75
2018-01-25T00:09:33.221Z,1006.74
2018-01-25T00:10:33.241Z,1006.74
2018-01-25T00:11:33.262Z,1006.68
2018-01-25T00:12:33.293Z,1006.65
2018-01-25T00:13:33.304Z,1006.66
2018-01-25T00:14:33.317Z,1006.59
2018-01-25T00:15:33.341Z,1006.67
2018-01-25T00:16:33.359Z,1006.65
2018-01-25T00:17:33.370Z,1006.68
2018-01-25T00:18:33.393Z,1006.68
2018-01-25T00:19:33.415Z,1006.7
2018-01-25T00:21:33.454Z,1006.63
2018-01-25T00:22:33.469Z,1006.62
2018-01-25T00:23:33.491Z,1006.6
2018-01-25T00:24:33.507Z,1006.67
2018-01-25T00:25:33.533Z,1006.66
2018-01-25T00:26:33.546Z,1006.62
2018-01-25T00:27:33.561Z,1006.7
2018-01-25T00:28:33.588Z,1006.61
2018-01-25T00:29:33.598Z,1006.65
2018-01-25T00:30:33.623Z,1006.73
2018-01-25T00:31:33.639Z,1006.67
2018-01-25T00:32:33.656Z,1006.75
2018-01-25T00:33:33.677Z,1006.74
2018-01-25T00:34:33.694Z,1006.71
2018-01-25T00:35:33.723Z,1006.7
2018-01-25T00:37:33.752Z,1006.66
2018-01-25T00:38:33.774Z,1006.66
2018-01-25T00:39:33.792Z,1006.67
2018-01-25T00:40:33.820Z,1006.6
2018-01-25T00:41:33.831Z,1006.6
2018-01-25T00:42:33.855Z,1006.6
2018-01-25T00:43:33.869Z,1006.68
2018-01-25T00:44:33.891Z,1006.63
2018-01-25T00:45:33.908Z,1006.62
2018-01-25T00:46:33.929Z,1006.55
2018-01-25T00:47:33.941Z,1006.6
2018-01-25T00:48:33.962Z,1006.6
2018-01-25T00:49:33.988Z,1006.69
2018-01-25T00:50:34.006Z,1006.67
2018-01-25T00:52:34.039Z,1006.64
2018-01-25T00:53:34.055Z,1006.64
2018-01-25T00:54:34.086Z,1006.66
2018-01-25T00:55:34.099Z,1006.68
2018-01-25T00:56:34.119Z,1006.65
2018-01-25T00:57:34.137Z,1006.72
2018-01-25T00:58:34.152Z,1006.73
2018-01-25T00:59:34.174Z,1006.71
2018-01-25T01:00:34.192Z,1006.76
2018-01-25T01:01:34.209Z,1006.77
2018-01-25T01:02:34.233Z,1006.71
2018-01-25T01:03:34.251Z,1006.76
2018-01-25T01:04:34.274Z,1006.69
2018-01-25T01:05:34.285Z,1006.77
2018-01-25T01:06:34.308Z,1006.74
2018-01-25T01:07:34.330Z,1006.74
2018-01-25T01:08:34.346Z,1006.8
2018-01-25T01:09:34.359Z,1006.77
2018-01-25T01:10:34.383Z,1006.74
2018-01-25T01:11:34.397Z,1006.75
2018-01-25T01:12:34.420Z,1006.74
2018-01-25T01:13:34.442Z,1006.76
2018-01-25T01:14:34.455Z,1006.74
2018-01-25T01:15:34.479Z,1006.67
2018-01-25T01:16:34.496Z,1006.76
2018-01-25T01:17:34.515Z,1006.69
2018-01-25T01:18:34.540Z,1006.74
2018-01-25T01:19:34.555Z,1006.7
2018-01-25T01:20:34.572Z,1006.73
2018-01-25T01:21:34.591Z,1006.69
2018-01-25T01:22:34.609Z,1006.63
2018-01-25T01:24:34.646Z,1006.64
2018-01-25T01:25:34.666Z,1006.61
2018-01-25T01:26:34.682Z,1006.71
2018-01-25T01:27:34.704Z,1006.71
2018-01-25T01:28:34.723Z,1006.7
2018-01-25T01:29:34.740Z,1006.73
2018-01-25T01:30:34.760Z,1006.69
2018-01-25T01:31:34.783Z,1006.63
2018-01-25T01:32:34.803Z,1006.7
2018-01-25T01:33:34.819Z,1006.66
2018-01-25T01:34:34.840Z,1006.7
2018-01-25T01:35:34.864Z,1006.61
2018-01-25T01:36:34.879Z,1006.66
2018-01-25T01:37:34.893Z,1006.65
2018-01-25T01:38:34.916Z,1006.63
2018-01-25T01:40:34.949Z,1006.73
2018-01-25T01:41:34.969Z,1006.69
2018-01-25T01:42:34.986Z,1006.6
2018-01-25T01:43:35.013Z,1006.69
2018-01-25T01:44:35.028Z,1006.64
2018-01-25T01:45:35.047Z,1006.69
2018-01-25T01:46:35.069Z,1006.65
2018-01-25T01:47:35.082Z,1006.72
2018-01-25T01:48:35.100Z,1006.72
2018-01-25T01:49:35.120Z,1006.68
2018-01-25T01:50:35.145Z,1006.72
2018-01-25T01:51:35.162Z,1006.62
2018-01-25T01:52:35.188Z,1006.7
2018-01-25T01:53:35.200Z,1006.6
2018-01-25T01:54:35.219Z,1006.7
2018-01-25T01:56:35.264Z,1006.69
2018-01-25T01:57:35.283Z,1006.67
2018-01-25T01:58:35.292Z,1006.65
2018-01-25T01:59:35.316Z,1006.74
2018-01-25T02:00:35.334Z,1006.71
2018-01-25T02:01:35.351Z,1006.74
2018-01-25T02:02:35.371Z,1006.74
2018-01-25T02:03:35.394Z,1006.75
2018-01-25T02:04:35.411Z,1006.71
2018-01-25T02:05:35.434Z,1006.74
2018-01-25T02:06:35.450Z,1006.71
2018-01-25T02:07:35.566Z,1006.74
2018-01-25T02:08:35.489Z,1006.77
2018-01-25T02:09:35.508Z,1006.7
2018-01-25T02:10:35.529Z,1006.72
2018-01-25T02:12:35.564Z,1006.79
2018-01-25T02:13:35.588Z,1006.7
2018-01-25T02:14:35.601Z,1006.77
2018-01-25T02:15:35.618Z,1006.7
2018-01-25T02:16:35.640Z,1006.72
2018-01-25T02:17:35.662Z,1006.69
2018-01-25T02:18:35.680Z,1006.69
2018-01-25T02:19:35.703Z,1006.73
2018-01-25T02:20:35.720Z,1006.71
2018-01-25T02:21:35.736Z,1006.68
2018-01-25T02:22:35.758Z,1006.71
2018-01-25T02:23:35.774Z,1006.67
2018-01-25T02:24:35.798Z,1006.69
2018-01-25T02:25:35.811Z,1006.7
2018-01-25T02:27:35.854Z,1006.67
2018-01-25T02:28:35.872Z,1006.65
2018-01-25T02:29:35.895Z,1006.66
2018-01-25T02:30:35.911Z,1006.67
2018-01-25T02:31:35.931Z,1006.67
2018-01-25T02:32:35.952Z,1006.63
2018-01-25T02:33:35.968Z,1006.6
2018-01-25T02:34:35.987Z,1006.59
2018-01-25T02:35:36.006Z,1006.6
2018-01-25T02:36:36.023Z,1006.58
2018-01-25T02:37:36.047Z,1006.64
2018-01-25T02:38:36.061Z,1006.6
2018-01-25T02:39:36.083Z,1006.63
2018-01-25T02:40:36.105Z,1006.59
2018-01-25T02:41:36.117Z,1006.63
2018-01-25T02:42:36.236Z,1006.6
2018-01-25T02:43:36.163Z,1006.6
2018-01-25T02:44:36.177Z,1006.65
2018-01-25T02:45:36.194Z,1006.56
2018-01-25T02:46:36.214Z,1006.67
2018-01-25T02:47:36.233Z,1006.62
2018-01-25T02:48:36.253Z,1006.67
2018-01-25T02:49:36.274Z,1006.61
2018-01-25T02:50:36.289Z,1006.63
2018-01-25T02:51:36.310Z,1006.63
2018-01-25T02:52:36.330Z,1006.6
2018-01-25T02:53:36.345Z,1006.6
2018-01-25T02:54:36.371Z,1006.63
2018-01-25T02:55:36.385Z,1006.58
2018-01-25T02:56:36.407Z,1006.6
2018-01-25T02:57:36.423Z,1006.57
2018-01-25T02:59:36.459Z,1006.6
2018-01-25T03:00:36.484Z,1006.57
2018-01-25T03:01:36.497Z,1006.64
2018-01-25T03:02:36.517Z,1006.57
2018-01-25T03:03:36.542Z,1006.53
2018-01-25T03:04:36.561Z,1006.55
2018-01-25T03:05:36.577Z,1006.55
2018-01-25T03:06:36.597Z,1006.61
2018-01-25T03:07:36.612Z,1006.58
2018-01-25T03:08:36.637Z,1006.57
2018-01-25T03:09:36.660Z,1006.53
2018-01-25T03:10:36.674Z,1006.49
2018-01-25T03:11:36.693Z,1006.53
2018-01-25T03:12:36.708Z,1006.52
2018-01-25T03:13:36.731Z,1006.52
2018-01-25T03:15:36.766Z,1006.48
2018-01-25T03:16:36.786Z,1006.53
2018-01-25T03:17:36.806Z,1006.51
2018-01-25T03:18:36.829Z,1006.56
2018-01-25T03:19:36.842Z,1006.52
2018-01-25T03:20:36.859Z,1006.5
2018-01-25T03:21:36.885Z,1006.52
2018-01-25T03:22:36.898Z,1006.52
2018-01-25T03:23:36.917Z,1006.48
2018-01-25T03:24:36.946Z,1006.51
2018-01-25T03:25:36.958Z,1006.49
2018-01-25T03:26:36.977Z,1006.48
2018-01-25T03:27:37.002Z,1006.45
2018-01-25T03:28:37.013Z,1006.45
2018-01-25T03:29:37.037Z,1006.44
2018-01-25T03:31:37.072Z,1006.46
2018-01-25T03:32:37.096Z,1006.4
2018-01-25T03:33:37.108Z,1006.45
2018-01-25T03:34:37.131Z,1006.44
2018-01-25T03:35:37.145Z,1006.44
2018-01-25T03:36:37.165Z,1006.46
2018-01-25T03:37:37.188Z,1006.46
2018-01-25T03:38:37.211Z,1006.54
2018-01-25T03:39:37.224Z,1006.55
2018-01-25T03:40:37.245Z,1006.55
2018-01-25T03:41:37.262Z,1006.55
2018-01-25T03:42:37.282Z,1006.52
2018-01-25T03:43:37.299Z,1006.49
2018-01-25T03:44:37.319Z,1006.53
2018-01-25T03:45:37.339Z,1006.54
2018-01-25T03:47:37.374Z,1006.58
2018-01-25T03:48:37.401Z,1006.57
2018-01-25T03:49:37.410Z,1006.54
2018-01-25T03:50:37.430Z,1006.55
2018-01-25T03:51:37.458Z,1006.52
2018-01-25T03:52:37.474Z,1006.44
2018-01-25T03:53:37.486Z,1006.46
2018-01-25T03:54:37.507Z,1006.48
2018-01-25T03:55:37.625Z,1006.47
2018-01-25T03:56:37.544Z,1006.4
2018-01-25T03:57:37.566Z,1006.39
2018-01-25T03:58:37.586Z,1006.39
2018-01-25T03:59:37.602Z,1006.4
2018-01-25T04:00:37.625Z,1006.38
2018-01-25T04:02:37.662Z,1006.43
2018-01-25T04:03:37.680Z,1006.43
2018-01-25T04:04:37.703Z,1006.45
2018-01-25T04:05:37.715Z,1006.42
2018-01-25T04:06:37.736Z,1006.49
2018-01-25T04:07:37.752Z,1006.47
2018-01-25T04:08:37.775Z,1006.41
2018-01-25T04:09:37.798Z,1006.54
2018-01-25T04:10:37.810Z,1006.54
2018-01-25T04:11:37.833Z,1006.49
2018-01-25T04:12:37.852Z,1006.46
2018-01-25T04:13:37.873Z,1006.43
2018-01-25T04:14:37.896Z,1006.41
2018-01-25T04:15:37.906Z,1006.51
2018-01-25T04:16:37.930Z,1006.47
2018-01-25T04:17:37.950Z,1006.44
2018-01-25T04:18:37.968Z,1006.44
2018-01-25T04:19:37.981Z,1006.5
2018-01-25T04:20:38.003Z,1006.46
2018-01-25T04:21:38.023Z,1006.5
2018-01-25T04:22:38.045Z,1006.49
2018-01-25T04:23:38.067Z,1006.52
2018-01-25T04:24:38.076Z,1006.58
2018-01-25T04:25:38.095Z,1006.5
2018-01-25T04:26:38.117Z,1006.6
2018-01-25T04:27:38.134Z,1006.61
2018-01-25T04:28:38.151Z,1006.59
2018-01-25T04:29:38.176Z,1006.56
2018-01-25T04:30:38.194Z,1006.53
2018-01-25T04:31:38.213Z,1006.51
2018-01-25T04:32:38.336Z,1006.58
2018-01-25T04:34:38.270Z,1006.55
2018-01-25T04:35:38.294Z,1006.51
2018-01-25T04:36:38.307Z,1006.54
2018-01-25T04:37:38.328Z,1006.54
2018-01-25T04:38:38.340Z,1006.56
2018-01-25T04:39:38.362Z,1006.54
2018-01-25T04:40:38.377Z,1006.57
2018-01-25T04:41:38.399Z,1006.55
2018-01-25T04:42:38.420Z,1006.49
2018-01-25T04:43:38.441Z,1006.61
2018-01-25T04:44:38.464Z,1006.58
2018-01-25T04:45:38.479Z,1006.56
2018-01-25T04:46:38.502Z,1006.6
2018-01-25T04:47:38.512Z,1006.52
2018-01-25T04:48:38.530Z,1006.52
2018-01-25T04:50:38.578Z,1006.55
2018-01-25T04:51:38.595Z,1006.61
2018-01-25T04:52:38.606Z,1006.65
2018-01-25T04:53:38.629Z,1006.55
2018-01-25T04:54:38.650Z,1006.67
2018-01-25T04:55:38.669Z,1006.61
2018-01-25T04:56:38.690Z,1006.62
2018-01-25T04:57:38.703Z,1006.63
2018-01-25T04:58:38.723Z,1006.61
2018-01-25T04:59:38.741Z,1006.7
2018-01-25T05:00:38.759Z,1006.65
2018-01-25T05:01:38.785Z,1006.63
2018-01-25T05:02:38.803Z,1006.67
2018-01-25T05:03:38.824Z,1006.66
2018-01-25T05:04:38.838Z,1006.65
2018-01-25T05:06:38.874Z,1006.64
2018-01-25T05:07:38.892Z,1006.62
2018-01-25T05:08:38.921Z,1006.66
2018-01-25T05:09:38.938Z,1006.62
2018-01-25T05:10:38.955Z,1006.7
2018-01-25T05:11:38.969Z,1006.65
2018-01-25T05:12:38.993Z,1006.67
2018-01-25T05:13:39.013Z,1006.73
2018-01-25T05:14:39.030Z,1006.7
2018-01-25T05:15:39.053Z,1006.66
2018-01-25T05:16:39.063Z,1006.68
2018-01-25T05:17:39.085Z,1006.68
2018-01-25T05:18:39.104Z,1006.73
2018-01-25T05:19:39.127Z,1006.74
2018-01-25T05:20:39.148Z,1006.67
2018-01-25T05:22:39.178Z,1006.7
2018-01-25T05:23:39.204Z,1006.73
2018-01-25T05:24:39.220Z,1006.72
2018-01-25T05:25:39.235Z,1006.73
2018-01-25T05:26:39.255Z,1006.69
2018-01-25T05:27:39.281Z,1006.67
2018-01-25T05:28:39.292Z,1006.67
2018-01-25T05:29:39.414Z,1006.71
2018-01-25T05:30:39.337Z,1006.71
2018-01-25T05:31:39.360Z,1006.72
2018-01-25T05:32:39.374Z,1006.68
2018-01-25T05:33:39.389Z,1006.74
2018-01-25T05:34:39.414Z,1006.85
2018-01-25T05:35:39.433Z,1006.79
2018-01-25T05:37:39.471Z,1006.81
2018-01-25T05:38:39.495Z,1006.85
2018-01-25T05:39:39.505Z,1006.84
2018-01-25T05:40:39.528Z,1006.83
2018-01-25T05:41:39.553Z,1006.82
2018-01-25T05:42:39.568Z,1006.93
2018-01-25T05:43:39.587Z,1006.94
2018-01-25T05:44:39.601Z,1006.94
2018-01-25T05:45:39.621Z,1006.97
2018-01-25T05:46:39.638Z,1006.93
2018-01-25T05:47:39.666Z,1006.85
2018-01-25T05:48:39.678Z,1006.95
2018-01-25T05:49:39.702Z,1006.96
2018-01-25T05:50:39.724Z,1006.95
2018-01-25T05:51:39.741Z,1007.02
2018-01-25T05:52:39.764Z,1006.99
2018-01-25T05:53:39.775Z,1006.98
2018-01-25T05:54:39.796Z,1007.08
2018-01-25T05:55:39.817Z,1007.01
2018-01-25T05:56:39.836Z,1007.04
2018-01-25T05:57:39.849Z,1007.07
2018-01-25T05:58:39.875Z,1007.05
2018-01-25T05:59:39.898Z,1007.03
2018-01-25T06:00:40.015Z,1007.12
2018-01-25T06:01:39.930Z,1007.12
2018-01-25T06:02:39.948Z,1007.11
2018-01-25T06:03:39.969Z,1007.13
2018-01-25T06:04:39.990Z,1007.1
2018-01-25T06:05:40.007Z,1007.16
2018-01-25T06:06:40.027Z,1007.12
2018-01-25T06:07:40.050Z,1007.12
2018-01-25T06:09:40.087Z,1007.18
2018-01-25T06:10:40.104Z,1007.15
2018-01-25T06:11:40.119Z,1007.16
2018-01-25T06:12:40.142Z,1007.16
2018-01-25T06:13:40.161Z,1007.15
2018-01-25T06:14:40.180Z,1007.19
2018-01-25T06:15:40.199Z,1007.2
2018-01-25T06:16:40.219Z,1007.2
2018-01-25T06:17:40.336Z,1007.21
2018-01-25T06:18:40.277Z,1007.21
2018-01-25T06:19:40.278Z,1007.27
2018-01-25T06:20:40.296Z,1007.26
2018-01-25T06:21:40.316Z,1007.26
2018-01-25T06:22:40.335Z,1007.31
2018-01-25T06:23:40.357Z,1007.29
2018-01-25T06:25:40.393Z,1007.24
2018-01-25T06:26:40.439Z,1007.3
2018-01-25T06:27:40.432Z,1007.28
2018-01-25T06:28:40.451Z,1007.24
2018-01-25T06:29:40.469Z,1007.29
2018-01-25T06:30:40.495Z,1007.28
2018-01-25T06:31:40.507Z,1007.27
2018-01-25T06:32:40.528Z,1007.31
2018-01-25T06:33:40.545Z,1007.28
2018-01-25T06:34:40.571Z,1007.34
2018-01-25T06:35:40.585Z,1007.25
2018-01-25T06:36:40.604Z,1007.28
2018-01-25T06:37:40.626Z,1007.32
2018-01-25T06:38:40.642Z,1007.35
2018-01-25T06:39:40.664Z,1007.3
2018-01-25T06:41:40.701Z,1007.35
2018-01-25T06:42:40.721Z,1007.33
2018-01-25T06:43:40.743Z,1007.32
2018-01-25T06:44:40.761Z,1007.4
2018-01-25T06:45:40.782Z,1007.34
2018-01-25T06:46:40.798Z,1007.38
2018-01-25T06:47:40.818Z,1007.42
2018-01-25T06:48:40.839Z,1007.43
2018-01-25T06:49:40.855Z,1007.43
2018-01-25T06:50:40.876Z,1007.42
2018-01-25T06:51:40.891Z,1007.47
2018-01-25T06:52:41.010Z,1007.57
2018-01-25T06:53:40.936Z,1007.49
2018-01-25T06:54:40.953Z,1007.5
2018-01-25T06:55:40.969Z,1007.56
2018-01-25T06:57:41.013Z,1007.52
2018-01-25T06:58:41.037Z,1007.52
2018-01-25T06:59:41.049Z,1007.52
2018-01-25T07:00:41.074Z,1007.59
2018-01-25T07:01:41.091Z,1007.58
2018-01-25T07:02:41.109Z,1007.59
2018-01-25T07:03:41.124Z,1007.53
2018-01-25T07:04:41.144Z,1007.57
2018-01-25T07:05:41.163Z,1007.57
2018-01-25T07:06:41.187Z,1007.65
2018-01-25T07:07:41.207Z,1007.66
2018-01-25T07:08:41.224Z,1007.7
2018-01-25T07:09:41.243Z,1007.75
2018-01-25T07:10:41.263Z,1007.74
2018-01-25T07:12:41.304Z,1007.68
2018-01-25T07:13:41.326Z,1007.74
2018-01-25T07:14:41.444Z,1007.77
2018-01-25T07:15:41.365Z,1007.79
2018-01-25T07:16:41.382Z,1007.83
2018-01-25T07:17:41.395Z,1007.86
2018-01-25T07:18:41.421Z,1007.88
2018-01-25T07:19:41.441Z,1007.86
2018-01-25T07:20:41.454Z,1007.87
2018-01-25T07:21:41.479Z,1007.89
2018-01-25T07:22:41.501Z,1007.92
2018-01-25T07:23:41.516Z,1007.89
2018-01-25T07:24:41.535Z,1007.84
2018-01-25T07:25:41.553Z,1007.85
2018-01-25T07:26:41.576Z,1007.97
2018-01-25T07:27:41.597Z,1007.97
2018-01-25T07:28:41.617Z,1007.94
2018-01-25T07:29:41.633Z,1007.95
2018-01-25T07:30:41.655Z,1007.97
2018-01-25T07:31:41.672Z,1007.97
2018-01-25T07:32:41.693Z,1007.99
2018-01-25T07:33:41.711Z,1007.98
2018-01-25T07:34:41.730Z,1008.04
2018-01-25T07:35:41.752Z,1008.09
2018-01-25T07:36:41.775Z,1008.1
2018-01-25T07:37:41.788Z,1008.1
2018-01-25T07:38:41.812Z,1008.07
2018-01-25T07:39:41.824Z,1008.06
2018-01-25T07:40:41.853Z,1008.06
2018-01-25T07:41:41.867Z,1008.08
2018-01-25T07:42:41.892Z,1008.07
2018-01-25T07:44:41.927Z,1008.03
2018-01-25T07:45:41.944Z,1008.15
2018-01-25T07:46:41.966Z,1008.2
2018-01-25T07:47:41.989Z,1008.23
2018-01-25T07:48:42.010Z,1008.21
2018-01-25T07:49:42.021Z,1008.24
2018-01-25T07:50:42.041Z,1008.23
2018-01-25T07:51:42.064Z,1008.27
2018-01-25T07:52:42.082Z,1008.29
2018-01-25T07:53:42.102Z,1008.31
2018-01-25T07:54:42.123Z,1008.29
2018-01-25T07:55:42.142Z,1008.37
2018-01-25T07:56:42.165Z,1008.34
2018-01-25T07:57:42.176Z,1008.35
2018-01-25T07:58:42.200Z,1008.4
2018-01-25T08:00:42.241Z,1008.44
2018-01-25T08:01:42.263Z,1008.41
2018-01-25T08:02:42.278Z,1008.42
2018-01-25T08:03:42.294Z,1008.44
2018-01-25T08:04:42.316Z,1008.43
2018-01-25T08:05:42.335Z,1008.52
2018-01-25T08:06:42.353Z,1008.54
2018-01-25T08:07:42.372Z,1008.53
2018-01-25T08:08:42.401Z,1008.53
2018-01-25T08:09:42.419Z,1008.58
2018-01-25T08:10:42.436Z,1008.52
2018-01-25T08:11:42.451Z,1008.48
2018-01-25T08:12:42.472Z,1008.46
2018-01-25T08:13:42.496Z,1008.47
2018-01-25T08:14:42.512Z,1008.46
2018-01-25T08:16:42.653Z,1008.49
2018-01-25T08:17:42.572Z,1008.48
2018-01-25T08:18:42.595Z,1008.5
2018-01-25T08:19:42.610Z,1008.58
2018-01-25T08:20:42.631Z,1008.58
2018-01-25T08:21:42.654Z,1008.58
2018-01-25T08:22:42.667Z,1008.57
2018-01-25T08:23:42.692Z,1008.62
2018-01-25T08:24:42.714Z,1008.59
2018-01-25T08:25:42.733Z,1008.6
2018-01-25T08:26:42.749Z,1008.61
2018-01-25T08:27:42.770Z,1008.58
2018-01-25T08:28:42.787Z,1008.55
2018-01-25T08:29:42.818Z,1008.55
2018-01-25T08:30:42.831Z,1008.54
2018-01-25T08:32:42.873Z,1008.54
2018-01-25T08:33:42.891Z,1008.58
2018-01-25T08:34:42.914Z,1008.56
2018-01-25T08:35:42.930Z,1008.58
2018-01-25T08:36:42.988Z,1008.59
2018-01-25T08:37:42.965Z,1008.65
2018-01-25T08:38:42.986Z,1008.62
2018-01-25T08:39:43.004Z,1008.63
2018-01-25T08:40:43.022Z,1008.62
2018-01-25T08:41:43.041Z,1008.63
2018-01-25T08:42:43.069Z,1008.68
2018-01-25T08:43:43.089Z,1008.72
2018-01-25T08:44:43.105Z,1008.71
2018-01-25T08:45:43.125Z,1008.74
2018-01-25T08:47:43.167Z,1008.74
2018-01-25T08:48:43.181Z,1008.74
2018-01-25T08:49:43.200Z,1008.75
2018-01-25T08:50:43.223Z,1008.74
2018-01-25T08:51:43.243Z,1008.81
2018-01-25T08:52:43.261Z,1008.8
2018-01-25T08:53:43.277Z,1008.84
2018-01-25T08:54:43.302Z,1008.84
2018-01-25T08:55:43.324Z,1008.88
2018-01-25T08:56:43.342Z,1008.9
2018-01-25T08:57:43.360Z,1008.94
2018-01-25T08:58:43.377Z,1008.96
2018-01-25T08:59:43.399Z,1009.01
2018-01-25T09:00:43.420Z,1008.96
2018-01-25T09:01:43.439Z,1008.96
2018-01-25T09:02:43.457Z,1008.94
2018-01-25T09:03:43.481Z,1009
2018-01-25T09:04:43.503Z,1008.99
2018-01-25T09:05:43.518Z,1009
2018-01-25T09:06:43.540Z,1008.99
2018-01-25T09:07:43.556Z,1008.97
2018-01-25T09:08:43.574Z,1009
2018-01-25T09:09:43.598Z,1009.02
2018-01-25T09:10:43.613Z,1009.02
2018-01-25T09:11:43.641Z,1009.04
2018-01-25T09:12:43.650Z,1009.02
2018-01-25T09:13:43.673Z,1009.04
2018-01-25T09:14:43.697Z,1009.05
2018-01-25T09:15:43.712Z,1009.05
2018-01-25T09:16:43.769Z,1009.04
2018-01-25T09:17:43.755Z,1009.06
2018-01-25T09:19:43.788Z,1009.07
2018-01-25T09:20:43.809Z,1009.04
2018-01-25T09:21:43.828Z,1009.02
2018-01-25T09:22:43.855Z,1009.02
2018-01-25T09:23:43.866Z,1009.05
2018-01-25T09:24:43.896Z,1009.09
2018-01-25T09:25:43.909Z,1009.08
2018-01-25T09:26:43.930Z,1009.09
2018-01-25T09:27:43.956Z,1009.13
2018-01-25T09:28:43.965Z,1009.07
2018-01-25T09:29:43.984Z,1009.12
2018-01-25T09:30:44.007Z,1009.12
2018-01-25T09:31:44.132Z,1009.13
2018-01-25T09:32:44.049Z,1009.16
2018-01-25T09:33:44.070Z,1009.11
2018-01-25T09:35:44.110Z,1009.15
2018-01-25T09:36:44.132Z,1009.17
2018-01-25T09:37:44.144Z,1009.18
2018-01-25T09:38:44.166Z,1009.17
2018-01-25T09:39:44.191Z,1009.14
2018-01-25T09:40:44.205Z,1009.11
2018-01-25T09:41:44.235Z,1009.17
2018-01-25T09:42:44.246Z,1009.17
2018-01-25T09:43:44.264Z,1009.21
2018-01-25T09:44:44.284Z,1009.19
2018-01-25T09:45:44.303Z,1009.21
2018-01-25T09:46:44.321Z,1009.21
2018-01-25T09:47:44.346Z,1009.22
2018-01-25T09:48:44.360Z,1009.21
2018-01-25T09:49:44.380Z,1009.2
2018-01-25T09:51:44.419Z,1009.28
2018-01-25T09:52:44.437Z,1009.27
2018-01-25T09:53:44.461Z,1009.27
2018-01-25T09:54:44.477Z,1009.31
2018-01-25T09:55:44.499Z,1009.31
2018-01-25T09:56:44.522Z,1009.31
2018-01-25T09:57:44.538Z,1009.3
2018-01-25T09:58:44.560Z,1009.31
2018-01-25T09:59:44.598Z,1009.34
2018-01-25T10:00:44.600Z,1009.36
2018-01-25T10:01:44.623Z,1009.36
2018-01-25T10:02:44.644Z,1009.37
2018-01-25T10:03:44.656Z,1009.32
2018-01-25T10:04:44.676Z,1009.33
2018-01-25T10:05:44.701Z,1009.34
2018-01-25T10:07:44.740Z,1009.37
2018-01-25T10:08:44.762Z,1009.4
2018-01-25T10:09:44.778Z,1009.44
2018-01-25T10:10:44.803Z,1009.5
2018-01-25T10:11:44.821Z,1009.53
2018-01-25T10:12:44.839Z,1009.5
2018-01-25T10:13:44.860Z,1009.54
2018-01-25T10:14:44.876Z,1009.49
2018-01-25T10:15:44.898Z,1009.51
2018-01-25T10:16:44.916Z,1009.51
2018-01-25T10:17:44.941Z,1009.48
2018-01-25T10:18:44.957Z,1009.49
2018-01-25T10:19:44.975Z,1009.49
2018-01-25T10:20:44.998Z,1009.5
2018-01-25T10:22:45.042Z,1009.49
2018-01-25T10:23:45.058Z,1009.54
2018-01-25T10:24:45.081Z,1009.52
2018-01-25T10:25:45.100Z,1009.52
2018-01-25T10:26:45.124Z,1009.52
2018-01-25T10:27:45.139Z,1009.56
2018-01-25T10:28:45.157Z,1009.52
2018-01-25T10:29:45.178Z,1009.54
2018-01-25T10:30:45.198Z,1009.55
2018-01-25T10:31:45.215Z,1009.56
2018-01-25T10:32:45.245Z,1009.51
2018-01-25T10:33:45.262Z,1009.44
2018-01-25T10:34:45.274Z,1009.51
2018-01-25T10:35:45.296Z,1009.45
2018-01-25T10:36:45.319Z,1009.45
2018-01-25T10:37:45.338Z,1009.44
2018-01-25T10:38:45.363Z,1009.44
2018-01-25T10:39:45.391Z,1009.46
2018-01-25T10:40:45.399Z,1009.47
2018-01-25T10:41:45.422Z,1009.4
2018-01-25T10:42:45.438Z,1009.45
2018-01-25T10:43:45.455Z,1009.43
2018-01-25T10:44:45.481Z,1009.41
2018-01-25T10:45:45.500Z,1009.44
2018-01-25T10:46:45.526Z,1009.43
2018-01-25T10:47:45.539Z,1009.45
2018-01-25T10:48:45.566Z,1009.47
2018-01-25T10:49:45.618Z,1009.45
2018-01-25T10:50:45.601Z,1009.46
2018-01-25T10:51:45.618Z,1009.49
2018-01-25T10:52:45.634Z,1009.5
2018-01-25T10:54:45.677Z,1009.46
2018-01-25T10:55:45.698Z,1009.46
2018-01-25T10:56:45.721Z,1009.46
2018-01-25T10:57:45.741Z,1009.49
2018-01-25T10:58:45.760Z,1009.51
2018-01-25T10:59:45.777Z,1009.48
2018-01-25T11:00:45.798Z,1009.49
2018-01-25T11:01:45.827Z,1009.5
2018-01-25T11:02:45.844Z,1009.5
2018-01-25T11:03:45.855Z,1009.48
2018-01-25T11:04:45.883Z,1009.47
2018-01-25T11:05:45.946Z,1009.45
2018-01-25T11:06:45.917Z,1009.49
2018-01-25T11:07:45.938Z,1009.44
2018-01-25T11:08:45.960Z,1009.47
2018-01-25T11:10:46.003Z,1009.49
2018-01-25T11:11:46.019Z,1009.42
2018-01-25T11:12:46.048Z,1009.42
2018-01-25T11:13:46.063Z,1009.46
2018-01-25T11:14:46.081Z,1009.42
2018-01-25T11:15:46.106Z,1009.38
2018-01-25T11:16:46.122Z,1009.39
2018-01-25T11:17:46.140Z,1009.42
2018-01-25T11:18:46.168Z,1009.37
2018-01-25T11:19:46.184Z,1009.42
2018-01-25T11:20:46.205Z,1009.47
2018-01-25T11:21:46.230Z,1009.44
2018-01-25T11:22:46.242Z,1009.42
2018-01-25T11:23:46.260Z,1009.46
2018-01-25T11:24:46.288Z,1009.45
2018-01-25T11:26:46.328Z,1009.45
2018-01-25T11:27:46.346Z,1009.49
2018-01-25T11:28:46.365Z,1009.43
2018-01-25T11:29:46.387Z,1009.45
2018-01-25T11:30:46.405Z,1009.41
2018-01-25T11:31:46.424Z,1009.46
2018-01-25T11:32:46.543Z,1009.39
2018-01-25T11:33:46.463Z,1009.42
2018-01-25T11:34:46.482Z,1009.38
2018-01-25T11:35:46.510Z,1009.4
2018-01-25T11:36:46.527Z,1009.39
2018-01-25T11:37:46.653Z,1009.34
2018-01-25T11:38:46.563Z,1009.33
2018-01-25T11:39:46.588Z,1009.31
2018-01-25T11:40:46.614Z,1009.26
2018-01-25T11:42:46.648Z,1009.21
2018-01-25T11:43:46.667Z,1009.2
2018-01-25T11:44:46.684Z,1009.18
2018-01-25T11:45:46.711Z,1009.17
2018-01-25T11:46:46.735Z,1009.19
2018-01-25T11:47:46.851Z,1009.17
2018-01-25T11:48:46.774Z,1009.19
2018-01-25T11:49:46.786Z,1009.18
2018-01-25T11:50:46.813Z,1009.15
2018-01-25T11:51:46.830Z,1009.18
2018-01-25T11:52:46.850Z,1009.17
2018-01-25T11:53:46.970Z,1009.17
2018-01-25T11:54:46.892Z,1009.17
2018-01-25T11:55:46.915Z,1009.18
2018-01-25T11:57:46.956Z,1009.19
2018-01-25T11:58:46.972Z,1009.22
2018-01-25T11:59:46.994Z,1009.18
2018-01-25T12:00:47.016Z,1009.15
2018-01-25T12:01:47.035Z,1009.12
2018-01-25T12:02:47.050Z,1009.13
2018-01-25T12:03:47.075Z,1009.09
2018-01-25T12:04:47.097Z,1009.06
2018-01-25T12:05:47.125Z,1009.07
2018-01-25T12:06:47.136Z,1009.1
2018-01-25T12:07:47.158Z,1009.08
2018-01-25T12:08:47.176Z,1009.13
2018-01-25T12:09:47.193Z,1009.15
2018-01-25T12:10:47.217Z,1009.16
2018-01-25T12:11:47.239Z,1009.15
2018-01-25T12:12:47.259Z,1009.14
2018-01-25T12:13:47.273Z,1009.16
2018-01-25T12:14:47.300Z,1009.13
2018-01-25T12:15:47.319Z,1009.17
2018-01-25T12:16:47.339Z,1009.16
2018-01-25T12:17:47.359Z,1009.22
2018-01-25T12:18:47.380Z,1009.21
2018-01-25T12:19:47.401Z,1009.22
2018-01-25T12:20:47.422Z,1009.23
2018-01-25T12:21:47.439Z,1009.23
2018-01-25T12:22:47.459Z,1009.19
2018-01-25T12:23:47.478Z,1009.22
2018-01-25T12:24:47.504Z,1009.21
2018-01-25T12:25:47.520Z,1009.23
2018-01-25T12:26:47.538Z,1009.22
2018-01-25T12:27:47.561Z,1009.25
2018-01-25T12:29:47.596Z,1009.23
2018-01-25T12:30:47.618Z,1009.27
2018-01-25T12:31:47.644Z,1009.25
2018-01-25T12:32:47.656Z,1009.21
2018-01-25T12:33:47.686Z,1009.23
2018-01-25T12:34:47.702Z,1009.27
2018-01-25T12:35:47.724Z,1009.21
2018-01-25T12:36:47.743Z,1009.25
2018-01-25T12:37:47.760Z,1009.25
2018-01-25T12:38:47.777Z,1009.24
2018-01-25T12:39:47.803Z,1009.25
2018-01-25T12:40:47.829Z,1009.27
2018-01-25T12:41:47.845Z,1009.3
2018-01-25T12:42:47.859Z,1009.3
2018-01-25T12:43:47.882Z,1009.29
2018-01-25T12:45:47.928Z,1009.29
2018-01-25T12:46:47.948Z,1009.25
2018-01-25T12:47:47.961Z,1009.29
2018-01-25T12:48:47.986Z,1009.28
2018-01-25T12:49:48.002Z,1009.26